Time;durP1;ratioP1;P1;durP2;ratioP2;P2;SDS_P1;SDS_P2;PMS_P1;PMS_P2;Temp;Humidity;BMP_temperature;BMP_pressure;BME280_temperature;BME280_humidity;BME280_pressure;Samples;Min_cycle;Max_cycle;Signal;HPM_P1;HPM_P2
2023/10/20 00:02:56;;;;;;;17.33;9.80;;;23.70;52.10;;;;;;6209895;28;81669;-66
2023/10/20 00:05:58;;;;;;;15.27;9.55;;;23.70;52.10;;;;;;6200040;28;80522;-66
2023/10/20 00:08:58;;;;;;;13.68;8.75;;;23.70;52.10;;;;;;6213449;28;80585;-64
2023/10/20 00:11:59;;;;;;;15.02;8.50;;;23.70;52.20;;;;;;6213501;28;81349;-64
2023/10/20 00:15:01;;;;;;;12.00;8.80;;;23.70;52.20;;;;;;6200257;27;80675;-64
2023/10/20 00:18:01;;;;;;;13.82;8.38;;;23.70;52.10;;;;;;6207533;28;80646;-64
2023/10/20 00:21:03;;;;;;;13.32;8.60;;;23.70;52.10;;;;;;6209631;28;80635;-61
2023/10/20 00:24:04;;;;;;;16.65;9.60;;;23.70;52.10;;;;;;6200153;28;81230;-62
2023/10/20 00:27:04;;;;;;;13.88;9.32;;;23.60;52.10;;;;;;6212748;28;81855;-61
2023/10/20 00:30:07;;;;;;;12.15;8.48;;;23.70;52.20;;;;;;6204179;28;83718;-61
2023/10/20 00:33:07;;;;;;;12.88;8.57;;;23.70;52.10;;;;;;6215513;28;80344;-62
2023/10/20 00:36:09;;;;;;;12.68;8.27;;;23.70;52.10;;;;;;6234850;27;80387;-63
2023/10/20 00:39:12;;;;;;;11.05;8.02;;;23.60;52.10;;;;;;6232396;28;83264;-61
2023/10/20 00:42:12;;;;;;;13.88;8.52;;;23.60;52.10;;;;;;6214509;27;80430;-62
2023/10/20 00:45:13;;;;;;;14.70;8.60;;;23.60;52.10;;;;;;6239884;27;80686;-62
2023/10/20 00:48:14;;;;;;;12.30;8.00;;;23.60;52.10;;;;;;6231488;27;80388;-62
2023/10/20 00:51:15;;;;;;;13.65;9.43;;;23.60;52.20;;;;;;6231843;27;80407;-62
2023/10/20 00:54:16;;;;;;;11.70;8.30;;;23.60;52.10;;;;;;6209521;28;81512;-63
2023/10/20 00:57:16;;;;;;;13.38;8.25;;;23.60;52.30;;;;;;6209600;27;82088;-64
2023/10/20 01:00:17;;;;;;;13.73;9.20;;;23.60;52.20;;;;;;6210814;28;80327;-62
2023/10/20 01:03:17;;;;;;;12.85;8.70;;;23.60;52.20;;;;;;6203234;28;80404;-62
2023/10/20 01:06:18;;;;;;;13.38;8.73;;;23.60;52.30;;;;;;6204512;28;80323;-64
2023/10/20 01:09:19;;;;;;;15.50;9.18;;;23.60;52.40;;;;;;6203909;28;81099;-62
2023/10/20 01:12:20;;;;;;;12.18;8.02;;;23.70;52.30;;;;;;6202508;28;80629;-63
2023/10/20 01:15:21;;;;;;;11.35;8.30;;;23.70;52.30;;;;;;6202587;28;81514;-63
2023/10/20 01:18:21;;;;;;;12.23;8.80;;;23.70;52.30;;;;;;6214922;28;81615;-63
2023/10/20 01:21:24;;;;;;;11.13;8.05;;;23.70;52.40;;;;;;6207558;28;80514;-61
2023/10/20 01:24:25;;;;;;;14.20;9.48;;;23.70;52.30;;;;;;6209621;28;81251;-59
2023/10/20 01:27:25;;;;;;;14.55;8.98;;;23.60;52.30;;;;;;6199825;28;82024;-60
2023/10/20 01:30:27;;;;;;;11.40;7.72;;;23.70;52.20;;;;;;6204960;28;80787;-60
2023/10/20 01:33:27;;;;;;;12.55;8.10;;;23.70;52.10;;;;;;6201105;28;80584;-61
2023/10/20 01:36:28;;;;;;;15.50;9.15;;;23.60;52.10;;;;;;6210960;28;80033;-59
2023/10/20 01:39:29;;;;;;;11.95;9.27;;;23.70;52.10;;;;;;6214711;27;80752;-59
2023/10/20 01:42:29;;;;;;;15.60;8.70;;;23.70;52.30;;;;;;6220985;28;83115;-57
2023/10/20 01:45:30;;;;;;;17.02;9.52;;;23.70;52.40;;;;;;6219294;28;81990;-57
2023/10/20 01:48:30;;;;;;;10.95;8.38;;;23.70;52.20;;;;;;6216202;28;80700;-59
2023/10/20 01:51:31;;;;;;;15.35;9.07;;;23.70;52.40;;;;;;6202795;28;81980;-58
2023/10/20 01:54:31;;;;;;;11.18;8.32;;;23.70;52.30;;;;;;6226998;28;80440;-60
2023/10/20 01:57:32;;;;;;;13.98;8.93;;;23.70;52.30;;;;;;6219678;28;82180;-59
2023/10/20 02:00:32;;;;;;;15.07;8.75;;;23.60;52.20;;;;;;6232041;28;83635;-59
2023/10/20 02:03:33;;;;;;;12.07;8.48;;;23.70;52.30;;;;;;6233056;27;80501;-59
2023/10/20 02:06:33;;;;;;;13.88;8.82;;;23.60;52.20;;;;;;6235761;28;83807;-59
2023/10/20 02:09:34;;;;;;;14.18;8.75;;;23.60;52.20;;;;;;6233628;28;83163;-60
2023/10/20 02:12:34;;;;;;;13.10;8.73;;;23.60;52.10;;;;;;6229431;28;82855;-59
2023/10/20 02:15:35;;;;;;;14.00;8.75;;;23.60;52.20;;;;;;6227248;28;81597;-59
2023/10/20 02:18:35;;;;;;;16.20;9.15;;;23.60;52.20;;;;;;6234400;27;81771;-59
2023/10/20 02:21:37;;;;;;;13.57;8.82;;;23.60;52.10;;;;;;6224908;28;86395;-61
2023/10/20 02:24:37;;;;;;;12.18;8.48;;;23.60;52.10;;;;;;6226251;28;80901;-61
2023/10/20 02:27:42;;;;;;;16.02;8.75;;;23.60;52.10;;;;;;6226328;28;80676;-60
2023/10/20 02:30:42;;;;;;;12.30;8.95;;;23.60;52.10;;;;;;6228453;27;81586;-61
2023/10/20 02:33:43;;;;;;;12.07;7.93;;;23.70;52.20;;;;;;6224836;27;80327;-61
2023/10/20 02:36:43;;;;;;;14.55;9.65;;;23.60;52.10;;;;;;6225871;28;80469;-59
2023/10/20 02:39:44;;;;;;;12.13;8.20;;;23.60;52.10;;;;;;6210760;27;81018;-59
2023/10/20 02:42:44;;;;;;;11.32;8.25;;;23.60;52.10;;;;;;6224755;28;80888;-59
2023/10/20 02:45:45;;;;;;;11.93;9.00;;;23.60;52.10;;;;;;6226278;27;82965;-59
2023/10/20 02:48:45;;;;;;;14.05;9.27;;;23.60;52.10;;;;;;6223289;28;80637;-58
2023/10/20 02:51:46;;;;;;;12.85;8.77;;;23.60;52.20;;;;;;6214413;27;80403;-59
2023/10/20 02:54:47;;;;;;;11.65;7.78;;;23.60;52.10;;;;;;6238909;27;81171;-61
2023/10/20 02:57:47;;;;;;;12.30;7.75;;;23.60;52.10;;;;;;6229316;28;80122;-61
2023/10/20 03:00:50;;;;;;;10.57;8.00;;;23.60;52.20;;;;;;6223896;27;80375;-63
2023/10/20 03:03:50;;;;;;;10.38;7.30;;;23.60;52.20;;;;;;6224987;28;80670;-63
2023/10/20 03:06:51;;;;;;;11.98;7.53;;;23.60;52.30;;;;;;6225052;28;88353;-63
2023/10/20 03:09:51;;;;;;;11.68;7.70;;;23.60;52.30;;;;;;6222895;28;81775;-64
2023/10/20 03:12:52;;;;;;;11.93;8.38;;;23.60;52.30;;;;;;6204829;28;80509;-59
2023/10/20 03:15:52;;;;;;;12.07;8.38;;;23.60;52.30;;;;;;6199910;28;84348;-60
2023/10/20 03:18:53;;;;;;;10.98;7.68;;;23.70;52.30;;;;;;6223750;27;81796;-58
2023/10/20 03:21:54;;;;;;;12.73;7.85;;;23.60;52.40;;;;;;6224576;27;80234;-58
2023/10/20 03:24:54;;;;;;;14.13;8.43;;;23.70;52.70;;;;;;6225111;27;80363;-59
2023/10/20 03:27:55;;;;;;;9.77;6.63;;;23.70;52.70;;;;;;6224434;27;81741;-57
2023/10/20 03:30:55;;;;;;;8.85;6.95;;;23.70;52.50;;;;;;6224295;28;80497;-60
2023/10/20 03:33:56;;;;;;;12.30;7.20;;;23.80;52.70;;;;;;6224932;27;80734;-60
2023/10/20 03:36:57;;;;;;;9.90;6.80;;;23.80;52.30;;;;;;6225326;27;80746;-61
2023/10/20 03:39:58;;;;;;;8.32;6.32;;;23.80;52.20;;;;;;6215947;28;83021;-60
2023/10/20 03:42:58;;;;;;;10.48;7.15;;;23.90;52.30;;;;;;6215335;28;82039;-61
2023/10/20 03:45:59;;;;;;;8.88;6.38;;;23.80;52.40;;;;;;6221962;27;80564;-59
2023/10/20 03:49:02;;;;;;;10.52;6.15;;;23.90;52.50;;;;;;6217941;27;80346;-59
2023/10/20 03:52:03;;;;;;;10.25;6.45;;;23.90;52.60;;;;;;6223150;28;80936;-58
2023/10/20 03:55:07;;;;;;;11.35;6.80;;;24.00;52.50;;;;;;6237681;27;81341;-56
2023/10/20 03:58:07;;;;;;;9.52;6.45;;;23.90;52.00;;;;;;6216158;28;83223;-58
2023/10/20 04:01:08;;;;;;;11.05;6.20;;;24.00;52.30;;;;;;6224585;27;80597;-57
2023/10/20 04:04:09;;;;;;;10.10;6.60;;;24.00;52.50;;;;;;6224332;28;81247;-60
2023/10/20 04:07:10;;;;;;;8.13;6.55;;;24.00;52.30;;;;;;6209048;28;80552;-59
2023/10/20 04:10:10;;;;;;;12.05;7.03;;;24.00;52.30;;;;;;6204808;28;85599;-59
2023/10/20 04:13:12;;;;;;;10.82;7.30;;;24.00;52.40;;;;;;6227346;28;83145;-58
2023/10/20 04:16:12;;;;;;;11.15;6.90;;;24.00;52.10;;;;;;6215372;27;80527;-59
2023/10/20 04:19:14;;;;;;;10.25;7.00;;;24.00;52.50;;;;;;6213375;27;81412;-61
2023/10/20 04:22:16;;;;;;;11.82;7.15;;;24.00;52.40;;;;;;6228834;27;80538;-60
2023/10/20 04:25:17;;;;;;;8.50;6.25;;;24.00;52.70;;;;;;6239641;27;80689;-58
2023/10/20 04:28:20;;;;;;;11.98;6.65;;;24.10;52.70;;;;;;6229840;27;80488;-62
2023/10/20 04:45:19;;;;;;;11.75;7.25;;;24.20;53.60;;;;;;6237954;28;80484;-58
2023/10/20 04:48:19;;;;;;;12.68;7.35;;;24.20;53.60;;;;;;6221760;27;81261;-59
2023/10/20 04:54:51;;;;;;;8.95;6.50;;;24.20;53.60;;;;;;6223246;28;84697;-55
2023/10/20 05:01:25;;;;;;;19.70;7.85;;;24.20;53.60;;;;;;6222597;27;80405;-51
2023/10/20 05:04:36;;;;;;;12.17;6.70;;;24.20;53.90;;;;;;6224605;28;82008;-49
2023/10/20 05:07:36;;;;;;;13.15;6.75;;;24.20;53.80;;;;;;6204561;28;84233;-54
2023/10/20 05:10:37;;;;;;;11.95;7.35;;;24.20;53.60;;;;;;6202850;27;80937;-54
2023/10/20 05:13:37;;;;;;;11.75;7.03;;;24.20;53.90;;;;;;6210784;28;81490;-53
2023/10/20 05:16:38;;;;;;;13.80;7.00;;;24.10;53.40;;;;;;6206499;28;80612;-56
2023/10/20 05:19:38;;;;;;;13.25;8.00;;;24.00;53.30;;;;;;6213149;28;80617;-57
2023/10/20 05:22:39;;;;;;;17.30;8.10;;;24.00;53.20;;;;;;6195900;28;81466;-63
2023/10/20 05:25:39;;;;;;;13.15;8.57;;;23.90;53.10;;;;;;6179549;28;80570;-61
2023/10/20 05:28:39;;;;;;;12.82;8.52;;;23.80;53.40;;;;;;6219071;27;83298;-60
2023/10/20 05:31:40;;;;;;;12.93;8.60;;;23.80;54.00;;;;;;6212930;28;82002;-61
2023/10/20 05:34:40;;;;;;;15.80;8.23;;;23.80;53.40;;;;;;6222120;28;82993;-62
2023/10/20 05:37:41;;;;;;;16.30;8.48;;;23.80;53.50;;;;;;6218362;28;80927;-62
2023/10/20 05:40:41;;;;;;;12.32;8.18;;;23.80;53.60;;;;;;6214430;27;82009;-62
2023/10/20 05:43:42;;;;;;;13.25;8.77;;;23.70;53.60;;;;;;6228695;28;81804;-63
2023/10/20 05:46:43;;;;;;;12.52;8.80;;;23.70;53.40;;;;;;6229410;28;80513;-61
2023/10/20 05:49:43;;;;;;;12.70;9.80;;;23.70;53.60;;;;;;6172738;27;81318;-60
2023/10/20 05:52:44;;;;;;;12.60;8.35;;;23.70;53.60;;;;;;6124480;27;81898;-61
2023/10/20 05:55:44;;;;;;;15.20;9.32;;;23.70;53.50;;;;;;6211715;28;82218;-59
2023/10/20 05:58:45;;;;;;;14.93;9.85;;;23.60;53.50;;;;;;6208051;28;81361;-60
2023/10/20 06:01:45;;;;;;;12.75;8.73;;;23.60;53.50;;;;;;6207083;27;80856;-58
2023/10/20 06:04:46;;;;;;;16.55;9.95;;;23.60;53.40;;;;;;6209544;28;83238;-59
2023/10/20 06:07:48;;;;;;;12.65;8.95;;;23.60;53.40;;;;;;6215736;27;82347;-59
2023/10/20 06:10:49;;;;;;;12.88;9.07;;;23.60;53.50;;;;;;6215672;27;80659;-60
2023/10/20 06:13:49;;;;;;;15.77;9.70;;;23.60;53.60;;;;;;6227338;28;80128;-60
2023/10/20 06:16:50;;;;;;;14.48;9.10;;;23.60;53.60;;;;;;6226766;27;80315;-62
2023/10/20 06:19:50;;;;;;;13.93;8.57;;;23.60;53.80;;;;;;6227300;27;80908;-62
2023/10/20 06:22:51;;;;;;;13.65;8.35;;;23.50;53.70;;;;;;6207348;28;82799;-63
2023/10/20 06:25:51;;;;;;;13.57;9.10;;;23.50;53.70;;;;;;6190913;28;80938;-62
2023/10/20 06:28:52;;;;;;;11.10;8.35;;;23.50;53.60;;;;;;6211092;27;84187;-62
2023/10/20 06:32:10;;;;;;;13.52;8.35;;;23.50;53.80;;;;;;6234001;27;81343;-62
2023/10/20 06:35:12;;;;;;;12.52;8.65;;;23.50;53.80;;;;;;6212478;28;80121;-62
2023/10/20 06:38:13;;;;;;;11.18;8.25;;;23.50;53.70;;;;;;6221760;28;80721;-62
2023/10/20 06:41:14;;;;;;;12.98;8.57;;;23.50;54.00;;;;;;6217479;27;80725;-62
2023/10/20 06:44:15;;;;;;;12.48;7.95;;;23.50;54.10;;;;;;6213090;28;84860;-63
2023/10/20 06:47:15;;;;;;;10.90;7.88;;;23.50;54.00;;;;;;6220899;28;81623;-62
2023/10/20 06:50:16;;;;;;;12.82;7.60;;;23.50;54.20;;;;;;6219182;27;80209;-62
2023/10/20 06:53:16;;;;;;;12.55;7.22;;;23.50;54.30;;;;;;6212751;28;81922;-62
2023/10/20 06:56:17;;;;;;;10.40;7.57;;;23.50;54.30;;;;;;6225672;28;81294;-63
2023/10/20 06:59:18;;;;;;;10.00;7.53;;;23.40;53.90;;;;;;6222625;28;80466;-63
2023/10/20 07:02:18;;;;;;;9.00;6.85;;;23.40;54.20;;;;;;6216401;28;81502;-64
2023/10/20 07:05:20;;;;;;;11.75;7.13;;;23.40;54.60;;;;;;6217062;28;81035;-66
2023/10/20 07:08:20;;;;;;;11.57;6.55;;;23.40;54.60;;;;;;6211032;28;80424;-63
2023/10/20 07:11:21;;;;;;;10.38;6.47;;;23.40;54.60;;;;;;6215581;28;80381;-63
2023/10/20 07:14:21;;;;;;;8.30;7.07;;;23.40;54.30;;;;;;6212812;28;80648;-65
2023/10/20 07:17:22;;;;;;;9.02;7.00;;;23.40;54.70;;;;;;6208677;28;81047;-64
2023/10/20 07:20:22;;;;;;;13.27;7.13;;;23.40;54.80;;;;;;6217528;28;81217;-67
2023/10/20 07:23:23;;;;;;;12.70;6.78;;;23.50;55.10;;;;;;6216758;28;81322;-67
2023/10/20 07:26:24;;;;;;;12.13;6.80;;;23.50;55.20;;;;;;6217522;28;80858;-65
2023/10/20 07:29:24;;;;;;;9.15;6.80;;;23.40;55.20;;;;;;6192675;28;83425;-62
2023/10/20 07:32:25;;;;;;;11.65;7.03;;;23.40;55.60;;;;;;6206721;28;81625;-63
2023/10/20 07:35:26;;;;;;;8.88;6.40;;;23.40;55.60;;;;;;6208655;28;80346;-64
2023/10/20 07:38:26;;;;;;;10.95;6.10;;;23.40;55.60;;;;;;6214581;28;80717;-64
2023/10/20 07:41:27;;;;;;;11.90;6.90;;;23.50;55.90;;;;;;6210973;28;82298;-61
2023/10/20 07:44:27;;;;;;;10.45;6.60;;;23.50;56.30;;;;;;6217530;28;81431;-63
2023/10/20 07:47:28;;;;;;;9.23;6.43;;;23.50;56.20;;;;;;6202177;28;80829;-62
2023/10/20 07:50:28;;;;;;;8.90;6.15;;;23.50;56.70;;;;;;6229314;28;80708;-63
2023/10/20 07:53:32;;;;;;;10.07;7.07;;;23.50;56.70;;;;;;6230309;28;81134;-62
2023/10/20 07:56:32;;;;;;;9.73;6.35;;;23.50;56.90;;;;;;6229520;28;80883;-64
2023/10/20 07:59:33;;;;;;;11.18;6.60;;;23.50;57.00;;;;;;6205266;28;80633;-62
2023/10/20 08:02:33;;;;;;;10.27;6.50;;;23.50;57.70;;;;;;6215245;28;87241;-65
2023/10/20 08:05:35;;;;;;;12.60;7.35;;;23.40;57.50;;;;;;6224688;27;80339;-64
2023/10/20 08:08:35;;;;;;;8.50;6.40;;;23.50;57.90;;;;;;6224870;27;82675;-64
2023/10/20 08:11:36;;;;;;;9.60;6.70;;;23.50;57.20;;;;;;6225447;27;80309;-62
2023/10/20 08:14:37;;;;;;;13.52;7.13;;;23.40;58.20;;;;;;6210702;28;80718;-63
2023/10/20 08:17:37;;;;;;;16.10;6.57;;;23.40;58.20;;;;;;6220721;28;80767;-62
2023/10/20 08:20:38;;;;;;;12.68;6.80;;;23.40;58.90;;;;;;6216370;28;80405;-64
2023/10/20 08:23:38;;;;;;;11.45;6.40;;;23.40;59.00;;;;;;6214013;28;80949;-63
2023/10/20 08:26:39;;;;;;;10.38;6.68;;;23.40;59.00;;;;;;6214041;28;80883;-59
2023/10/20 08:29:39;;;;;;;8.25;6.72;;;23.40;59.60;;;;;;6213906;27;81194;-59
2023/10/20 08:32:40;;;;;;;9.07;6.65;;;23.40;59.90;;;;;;6215269;27;80521;-59
2023/10/20 08:35:40;;;;;;;8.32;5.72;;;23.50;60.10;;;;;;6211535;28;83348;-59
2023/10/20 08:38:41;;;;;;;10.13;6.25;;;23.40;60.00;;;;;;6223143;28;80240;-59
2023/10/20 08:41:45;;;;;;;9.65;6.53;;;23.50;59.70;;;;;;6218987;28;80765;-60
2023/10/20 08:44:45;;;;;;;11.35;6.38;;;23.40;60.00;;;;;;6215142;28;80480;-60
2023/10/20 08:47:46;;;;;;;11.20;6.60;;;23.40;60.00;;;;;;6206010;28;82678;-59
2023/10/20 08:50:46;;;;;;;13.07;6.80;;;23.40;59.50;;;;;;6232043;27;80767;-58
2023/10/20 08:53:47;;;;;;;20.48;6.93;;;23.40;60.60;;;;;;6243140;27;83008;-60
2023/10/20 08:56:48;;;;;;;23.92;7.22;;;23.40;60.70;;;;;;6210435;28;80519;-61
2023/10/20 08:59:48;;;;;;;31.60;8.35;;;23.40;60.00;;;;;;6196974;28;83240;-59
2023/10/20 09:02:49;;;;;;;16.20;6.95;;;23.40;60.10;;;;;;6218126;28;81897;-59
2023/10/20 09:05:49;;;;;;;12.82;6.60;;;23.40;59.60;;;;;;6218312;28;80960;-60
2023/10/20 09:08:50;;;;;;;32.08;8.65;;;23.40;59.70;;;;;;6218671;27;81978;-59
2023/10/20 09:11:50;;;;;;;24.05;7.82;;;23.40;59.40;;;;;;6216486;28;80105;-59
2023/10/20 09:14:53;;;;;;;22.13;7.38;;;23.40;59.30;;;;;;6215203;28;80930;-61
2023/10/20 09:17:54;;;;;;;16.45;6.95;;;23.50;59.40;;;;;;6220814;28;82014;-60
2023/10/20 09:20:54;;;;;;;14.50;6.68;;;23.50;59.10;;;;;;6218173;28;80643;-62
2023/10/20 09:23:55;;;;;;;9.43;6.63;;;23.50;58.50;;;;;;6223990;28;82357;-61
2023/10/20 09:26:55;;;;;;;15.95;6.78;;;23.50;58.70;;;;;;6210135;28;83092;-60
2023/10/20 09:29:56;;;;;;;22.00;7.07;;;23.50;58.60;;;;;;6217395;28;84698;-61
2023/10/20 09:32:57;;;;;;;12.25;6.47;;;23.60;58.80;;;;;;6220450;27;80598;-61
2023/10/20 09:35:57;;;;;;;14.45;6.05;;;23.60;58.20;;;;;;6223447;28;80644;-60
2023/10/20 09:38:58;;;;;;;9.32;5.93;;;23.60;58.00;;;;;;6222311;28;81356;-60
2023/10/20 09:41:58;;;;;;;9.05;5.38;;;23.60;58.10;;;;;;6218613;28;80495;-61
2023/10/20 09:44:59;;;;;;;10.02;5.75;;;23.60;57.70;;;;;;6217397;28;80811;-62
2023/10/20 09:47:59;;;;;;;12.15;5.82;;;23.60;57.90;;;;;;6223877;28;80561;-62
2023/10/20 09:51:00;;;;;;;11.05;5.88;;;23.60;57.60;;;;;;6192711;28;81384;-61
2023/10/20 09:54:00;;;;;;;8.63;5.47;;;23.70;58.10;;;;;;6224158;28;82300;-61
2023/10/20 09:57:01;;;;;;;8.13;5.93;;;23.70;58.10;;;;;;6213132;28;84923;-61
2023/10/20 10:00:03;;;;;;;15.80;7.20;;;23.70;57.90;;;;;;6219148;28;80971;-60
2023/10/20 10:03:05;;;;;;;8.45;6.18;;;23.70;58.10;;;;;;6208424;28;80837;-62
2023/10/20 10:06:05;;;;;;;8.32;5.85;;;23.70;58.50;;;;;;6224890;27;80620;-59
2023/10/20 10:09:06;;;;;;;7.68;5.95;;;23.70;58.40;;;;;;6240525;27;82685;-60
2023/10/20 10:12:07;;;;;;;10.20;6.07;;;23.70;58.40;;;;;;6223965;28;80518;-60
2023/10/20 10:15:12;;;;;;;10.32;6.15;;;23.70;58.50;;;;;;6235597;28;80582;-67
2023/10/20 10:18:13;;;;;;;8.63;6.07;;;23.80;58.80;;;;;;6229985;27;81823;-66
2023/10/20 10:21:13;;;;;;;11.00;6.38;;;23.80;58.80;;;;;;6236935;27;80948;-69
2023/10/20 10:24:16;;;;;;;11.88;5.85;;;23.80;59.00;;;;;;6206344;27;80717;-68
2023/10/20 10:27:17;;;;;;;9.57;6.30;;;23.80;59.40;;;;;;6217899;28;84208;-62
2023/10/20 10:30:17;;;;;;;6.63;5.40;;;23.80;60.20;;;;;;6210026;27;80721;-63
2023/10/20 10:33:18;;;;;;;11.90;6.25;;;23.80;60.30;;;;;;6209860;28;80798;-63
2023/10/20 10:36:19;;;;;;;8.25;5.78;;;23.80;60.20;;;;;;6203659;28;80294;-68
2023/10/20 10:39:19;;;;;;;16.70;6.68;;;23.90;60.70;;;;;;6206935;28;80384;-66
2023/10/20 10:42:22;;;;;;;12.43;6.13;;;23.90;61.70;;;;;;6231939;27;80459;-70
2023/10/20 10:45:23;;;;;;;8.82;5.45;;;24.00;62.90;;;;;;6222079;28;81321;-68
2023/10/20 10:48:23;;;;;;;9.77;5.65;;;24.00;63.10;;;;;;6229856;27;80783;-68
2023/10/20 10:51:24;;;;;;;12.25;6.35;;;24.00;63.20;;;;;;6219631;27;80360;-72
2023/10/20 10:54:26;;;;;;;8.20;6.07;;;24.00;64.00;;;;;;6204581;28;80634;-66
2023/10/20 10:57:27;;;;;;;8.40;6.05;;;24.00;64.20;;;;;;6204439;28;80893;-66
2023/10/20 11:00:27;;;;;;;10.00;6.20;;;24.00;65.00;;;;;;6205275;28;80724;-67
2023/10/20 11:03:28;;;;;;;9.10;6.68;;;24.00;65.20;;;;;;6208800;28;81070;-68
2023/10/20 11:06:32;;;;;;;9.60;6.10;;;23.90;65.10;;;;;;6212685;28;80783;-67
2023/10/20 11:09:33;;;;;;;11.60;7.28;;;23.90;65.80;;;;;;6214749;27;80889;-65
2023/10/20 11:12:34;;;;;;;12.15;6.55;;;23.90;65.80;;;;;;6211992;27;83143;-66
2023/10/20 11:15:35;;;;;;;14.15;6.72;;;23.90;65.60;;;;;;6220185;28;80870;-72
2023/10/20 11:18:35;;;;;;;13.55;6.57;;;23.90;66.00;;;;;;6214694;28;80580;-70
2023/10/20 11:21:36;;;;;;;18.65;7.05;;;23.80;65.80;;;;;;6211941;28;80515;-63
2023/10/20 11:24:36;;;;;;;14.32;7.43;;;23.80;66.50;;;;;;6214578;27;87158;-63
2023/10/20 11:27:37;;;;;;;12.18;6.50;;;23.80;67.00;;;;;;6224227;28;80520;-65
2023/10/20 11:30:38;;;;;;;13.93;7.45;;;23.80;68.00;;;;;;6227238;27;83102;-74
2023/10/20 11:33:39;;;;;;;15.68;7.00;;;23.80;68.00;;;;;;6240875;27;80343;-68
2023/10/20 11:36:40;;;;;;;10.63;6.53;;;23.80;67.40;;;;;;6236648;27;80460;-73
2023/10/20 11:39:40;;;;;;;14.80;7.97;;;23.80;67.70;;;;;;6227965;28;82448;-71
2023/10/20 11:42:41;;;;;;;10.43;6.80;;;23.80;68.50;;;;;;6212435;28;80529;-72
2023/10/20 11:45:41;;;;;;;14.18;7.72;;;23.80;68.70;;;;;;6241090;27;80913;-80
2023/10/20 11:48:42;;;;;;;10.20;7.20;;;23.80;69.60;;;;;;6236474;28;81488;-71
2023/10/20 11:51:42;;;;;;;11.85;7.88;;;23.80;69.90;;;;;;6222310;28;80652;-70
2023/10/20 11:54:45;;;;;;;11.32;7.15;;;23.80;69.70;;;;;;6214563;28;81367;-67
2023/10/20 11:57:45;;;;;;;12.13;6.80;;;23.80;69.70;;;;;;6210348;27;82273;-68
2023/10/20 12:00:46;;;;;;;15.35;7.70;;;23.80;70.00;;;;;;6217305;27;82087;-78
2023/10/20 12:03:46;;;;;;;11.98;6.70;;;23.80;69.80;;;;;;6228759;27;80896;-81
2023/10/20 12:06:47;;;;;;;12.70;7.57;;;23.80;70.70;;;;;;6209103;28;83072;-62
2023/10/20 12:09:47;;;;;;;14.30;6.82;;;23.80;70.50;;;;;;6218462;28;80446;-61
2023/10/20 12:12:48;;;;;;;13.73;6.70;;;23.80;70.50;;;;;;6206355;28;81212;-61
2023/10/20 12:15:48;;;;;;;15.10;7.40;;;23.80;71.10;;;;;;6209978;28;81294;-62
2023/10/20 12:18:49;;;;;;;12.38;6.40;;;23.80;70.20;;;;;;6215230;27;80460;-59
2023/10/20 12:21:49;;;;;;;12.57;6.43;;;23.80;70.00;;;;;;6216383;28;80904;-60
2023/10/20 12:24:50;;;;;;;14.02;6.88;;;23.80;70.40;;;;;;6202587;28;80162;-78
2023/10/20 12:27:50;;;;;;;11.93;6.53;;;23.80;70.40;;;;;;6228206;28;84513;-77
2023/10/20 12:30:51;;;;;;;15.50;6.22;;;23.80;70.40;;;;;;6224291;28;80077;-73
2023/10/20 12:33:51;;;;;;;10.35;6.03;;;23.80;70.50;;;;;;6214385;28;81515;-71
2023/10/20 12:36:52;;;;;;;11.35;6.38;;;23.80;70.30;;;;;;6210456;28;81398;-74
2023/10/20 12:39:53;;;;;;;9.52;6.15;;;23.80;70.40;;;;;;6211962;28;81717;-74
2023/10/20 12:42:53;;;;;;;10.77;6.35;;;23.80;70.40;;;;;;6226625;28;80988;-61
2023/10/20 12:45:54;;;;;;;10.57;6.72;;;23.80;70.30;;;;;;6205544;28;80500;-60
2023/10/20 12:48:54;;;;;;;14.85;7.32;;;23.80;70.60;;;;;;6208728;28;80673;-60
2023/10/20 12:51:55;;;;;;;12.75;6.10;;;23.80;71.10;;;;;;6209076;28;80806;-60
2023/10/20 12:54:55;;;;;;;13.52;6.85;;;23.80;71.10;;;;;;6203989;28;80742;-61
2023/10/20 12:57:56;;;;;;;10.75;6.43;;;23.80;70.70;;;;;;6215185;28;80283;-60
2023/10/20 13:00:57;;;;;;;11.80;5.47;;;23.70;70.30;;;;;;6208719;27;82988;-73
2023/10/20 13:03:57;;;;;;;14.35;5.60;;;23.70;69.30;;;;;;6222305;27;80916;-80
2023/10/20 13:06:58;;;;;;;14.93;5.47;;;23.70;69.20;;;;;;6213468;28;80347;-85
2023/10/20 13:09:59;;;;;;;15.25;6.05;;;23.70;69.60;;;;;;6211425;28;81874;-66
2023/10/20 13:13:00;;;;;;;12.23;5.35;;;23.70;69.40;;;;;;6213831;28;80320;-68
2023/10/20 13:16:02;;;;;;;14.63;5.10;;;23.80;69.70;;;;;;6221845;28;80834;-66
2023/10/20 13:19:03;;;;;;;10.50;4.60;;;23.80;69.50;;;;;;6212897;27;81840;-64
2023/10/20 13:22:03;;;;;;;11.48;4.50;;;23.80;69.70;;;;;;6211612;27;80442;-63
2023/10/20 13:25:04;;;;;;;13.05;4.82;;;23.70;68.70;;;;;;6210748;28;81990;-63
2023/10/20 13:28:05;;;;;;;12.57;4.78;;;23.80;68.80;;;;;;6209024;28;81066;-66
2023/10/20 13:31:16;;;;;;;15.60;4.97;;;23.80;68.60;;;;;;6220798;28;86764;-65
2023/10/20 13:34:16;;;;;;;14.10;4.90;;;23.70;68.20;;;;;;6212804;28;82608;-64
2023/10/20 13:37:17;;;;;;;14.43;5.20;;;23.70;67.40;;;;;;6211016;28;81323;-60
2023/10/20 13:40:17;;;;;;;13.48;4.03;;;23.70;68.00;;;;;;6217154;27;80381;-60
2023/10/20 13:43:18;;;;;;;12.73;4.47;;;23.70;68.00;;;;;;6228980;27;81117;-60
2023/10/20 13:46:18;;;;;;;11.63;4.32;;;23.70;68.30;;;;;;6228428;27;81169;-59
2023/10/20 13:49:19;;;;;;;12.13;4.47;;;23.70;68.30;;;;;;6192143;28;80835;-60
2023/10/20 13:52:19;;;;;;;18.25;4.80;;;23.70;67.30;;;;;;6201632;28;83684;-57
2023/10/20 13:55:20;;;;;;;14.52;5.20;;;23.60;67.60;;;;;;6217594;28;80204;-59
2023/10/20 13:58:21;;;;;;;17.67;5.55;;;23.60;68.30;;;;;;6221220;27;80434;-61
2023/10/20 14:01:22;;;;;;;13.50;5.22;;;23.70;68.90;;;;;;6221790;27;81528;-61
2023/10/20 14:04:23;;;;;;;13.30;4.32;;;23.70;69.20;;;;;;6224615;28;80788;-61
2023/10/20 14:07:24;;;;;;;16.65;5.05;;;23.80;69.10;;;;;;6215535;27;81631;-60
2023/10/20 14:10:24;;;;;;;10.32;4.15;;;23.90;69.00;;;;;;6219672;28;80378;-59
2023/10/20 14:13:25;;;;;;;13.57;4.82;;;23.90;68.70;;;;;;6223901;28;80207;-60
2023/10/20 14:16:25;;;;;;;16.55;4.63;;;23.90;68.90;;;;;;6218521;28;83372;-61
2023/10/20 14:19:26;;;;;;;18.23;5.85;;;23.90;68.70;;;;;;6215733;27;80425;-61
2023/10/20 14:22:27;;;;;;;12.98;4.60;;;24.00;68.40;;;;;;6221159;27;80547;-62
2023/10/20 14:25:28;;;;;;;8.55;4.07;;;24.00;68.70;;;;;;6220668;28;86050;-62
2023/10/20 14:28:31;;;;;;;13.32;4.70;;;24.00;68.30;;;;;;6217898;28;81411;-61
2023/10/20 14:31:32;;;;;;;18.80;4.28;;;24.00;67.90;;;;;;6214411;28;80748;-63
2023/10/20 14:34:32;;;;;;;13.95;4.93;;;24.00;67.70;;;;;;6213551;28;83824;-61
2023/10/20 14:37:33;;;;;;;15.48;5.60;;;24.00;67.60;;;;;;6178595;28;81171;-62
2023/10/20 14:40:33;;;;;;;13.13;3.75;;;23.80;63.40;;;;;;6188240;28;81750;-61
2023/10/20 14:43:34;;;;;;;15.73;5.35;;;23.60;62.30;;;;;;6180601;28;82142;-61
2023/10/20 14:46:36;;;;;;;20.95;4.85;;;23.60;62.70;;;;;;6181217;27;80686;-61
2023/10/20 14:49:37;;;;;;;15.85;5.10;;;23.40;62.80;;;;;;6179613;28;81291;-62
2023/10/20 14:52:39;;;;;;;13.90;4.40;;;23.40;63.50;;;;;;6180857;28;82140;-61
2023/10/20 14:55:40;;;;;;;9.05;4.35;;;23.50;63.90;;;;;;6184847;28;80763;-61
2023/10/20 14:58:40;;;;;;;12.52;5.25;;;23.50;64.10;;;;;;6191498;28;81763;-61
2023/10/20 15:01:41;;;;;;;16.02;5.28;;;23.40;64.50;;;;;;6182653;28;81522;-61
2023/10/20 15:04:41;;;;;;;14.95;4.85;;;23.40;65.00;;;;;;6183941;28;83195;-61
2023/10/20 15:07:42;;;;;;;15.27;5.40;;;23.30;64.90;;;;;;6186025;28;81996;-63
2023/10/20 15:10:42;;;;;;;13.48;5.00;;;23.30;65.00;;;;;;6183538;28;81427;-61
2023/10/20 15:13:43;;;;;;;14.30;5.57;;;23.30;65.20;;;;;;6181515;28;83531;-62
2023/10/20 15:16:43;;;;;;;20.65;5.55;;;23.40;65.30;;;;;;6188076;28;82233;-63
2023/10/20 15:19:44;;;;;;;14.90;5.50;;;23.50;65.90;;;;;;6189281;28;81785;-61
2023/10/20 15:22:46;;;;;;;18.15;6.22;;;23.60;65.90;;;;;;6181675;27;81247;-64
2023/10/20 15:25:47;;;;;;;11.80;5.40;;;23.60;66.00;;;;;;6184338;27;81114;-61
2023/10/20 15:28:47;;;;;;;14.48;5.28;;;23.70;66.10;;;;;;6188354;27;81955;-65
2023/10/20 15:31:48;;;;;;;14.80;5.20;;;23.70;66.40;;;;;;6187107;28;81649;-64
2023/10/20 15:34:49;;;;;;;18.20;5.57;;;23.70;66.40;;;;;;6173987;28;84827;-57
2023/10/20 15:37:50;;;;;;;14.02;5.00;;;23.70;67.10;;;;;;6196135;28;81757;-62
2023/10/20 15:40:51;;;;;;;11.75;5.90;;;23.70;67.60;;;;;;6177339;27;81108;-62
2023/10/20 15:43:51;;;;;;;13.48;5.15;;;23.70;68.20;;;;;;6213902;28;82851;-67
2023/10/20 15:46:52;;;;;;;17.00;5.47;;;23.70;68.10;;;;;;6208500;28;84583;-73
2023/10/20 15:49:52;;;;;;;14.82;5.85;;;23.70;68.40;;;;;;6205760;28;82529;-68
2023/10/20 15:52:53;;;;;;;18.83;5.38;;;23.70;68.70;;;;;;6215146;28;80953;-66